Time;durP1;ratioP1;P1;durP2;ratioP2;P2;SDS_P1;SDS_P2;PMS_P1;PMS_P2;Temp;Humidity;BMP_temperature;BMP_pressure;BME280_temperature;BME280_humidity;BME280_pressure;Samples;Min_cycle;Max_cycle;Signal;HPM_P1;HPM_P2
2021/01/08 00:01:46;;;;;;;18.05;7.60;;;1.70;99.90;;;;;;5000068;28;20708;-85
2021/01/08 00:04:11;;;;;;;16.77;7.25;;;1.60;99.90;;;;;;4994859;28;20764;-85
2021/01/08 00:06:37;;;;;;;17.13;7.95;;;1.60;99.90;;;;;;5006892;28;20034;-86
2021/01/08 00:09:03;;;;;;;14.95;7.68;;;1.60;99.90;;;;;;5005710;28;20048;-86
2021/01/08 00:11:29;;;;;;;15.80;7.75;;;1.60;99.90;;;;;;5022150;28;20041;-84
2021/01/08 00:13:55;;;;;;;18.23;7.80;;;1.60;99.90;;;;;;5012127;28;20510;-85
2021/01/08 00:16:21;;;;;;;15.20;7.57;;;1.60;99.90;;;;;;5012373;28;20108;-86
2021/01/08 00:18:47;;;;;;;14.65;7.32;;;1.60;99.90;;;;;;5000108;28;20297;-86
2021/01/08 00:21:13;;;;;;;17.02;8.23;;;1.60;99.90;;;;;;5014413;28;21931;-85
2021/01/08 00:23:39;;;;;;;15.80;8.13;;;1.60;99.90;;;;;;5010688;28;20041;-82
2021/01/08 00:26:04;;;;;;;20.52;8.45;;;1.60;99.90;;;;;;5011254;28;20045;-85
2021/01/08 00:28:30;;;;;;;16.80;7.30;;;1.60;99.90;;;;;;5010776;28;20034;-84
2021/01/08 00:30:56;;;;;;;14.35;7.25;;;1.60;99.90;;;;;;5001256;28;20110;-84
2021/01/08 00:33:21;;;;;;;18.60;8.82;;;1.60;99.90;;;;;;4997980;28;20060;-85
2021/01/08 00:35:47;;;;;;;18.08;8.00;;;1.60;99.90;;;;;;4997880;28;20049;-83
2021/01/08 00:38:13;;;;;;;15.02;7.63;;;1.70;99.90;;;;;;4997650;28;20034;-85
2021/01/08 00:40:38;;;;;;;16.25;7.32;;;1.60;99.90;;;;;;4996208;28;20038;-85
2021/01/08 00:43:04;;;;;;;15.38;6.97;;;1.60;99.90;;;;;;4994754;28;20099;-83
2021/01/08 00:45:30;;;;;;;20.70;8.18;;;1.60;99.90;;;;;;4996868;28;20876;-83
2021/01/08 00:47:56;;;;;;;19.13;7.53;;;1.60;99.90;;;;;;4997612;28;20042;-83
2021/01/08 00:50:21;;;;;;;19.58;7.38;;;1.50;99.90;;;;;;4993434;28;20722;-83
2021/01/08 00:52:47;;;;;;;15.15;7.43;;;1.60;99.90;;;;;;5000447;28;20045;-85
2021/01/08 00:55:12;;;;;;;18.00;7.72;;;1.60;99.90;;;;;;5002455;28;20064;-84
2021/01/08 00:57:38;;;;;;;16.23;7.75;;;1.60;99.90;;;;;;4999867;28;20037;-84
2021/01/08 01:00:06;;;;;;;12.85;6.07;;;1.60;99.90;;;;;;4999297;28;21125;-86
2021/01/08 01:02:35;;;;;;;13.93;6.95;;;1.60;99.90;;;;;;5000102;28;20155;-83
2021/01/08 01:05:01;;;;;;;19.60;7.82;;;1.60;99.90;;;;;;5000758;28;20399;-85
2021/01/08 01:07:26;;;;;;;14.10;6.70;;;1.60;99.90;;;;;;4999284;28;20156;-84
2021/01/08 01:09:52;;;;;;;12.43;6.40;;;1.60;99.90;;;;;;4997132;28;20034;-85
2021/01/08 01:12:18;;;;;;;15.52;6.85;;;1.60;99.90;;;;;;4997339;28;20905;-84
2021/01/08 01:14:44;;;;;;;12.77;6.72;;;1.60;99.90;;;;;;4999658;28;20628;-85
2021/01/08 01:17:09;;;;;;;14.80;6.57;;;1.60;99.90;;;;;;4999126;28;20106;-85
2021/01/08 01:19:35;;;;;;;15.15;7.40;;;1.60;99.90;;;;;;4997666;28;20765;-83
2021/01/08 01:22:00;;;;;;;15.13;6.22;;;1.60;99.90;;;;;;4997775;28;20037;-83
2021/01/08 01:24:26;;;;;;;15.52;6.72;;;1.60;99.90;;;;;;4999008;28;20045;-83
2021/01/08 01:26:55;;;;;;;15.65;6.57;;;1.60;99.90;;;;;;5000173;28;20311;-83
2021/01/08 01:29:21;;;;;;;16.05;7.00;;;1.70;99.90;;;;;;4997161;28;20045;-86
2021/01/08 01:31:47;;;;;;;12.80;5.80;;;1.70;99.90;;;;;;5015973;28;20687;-86
2021/01/08 01:34:12;;;;;;;15.60;7.25;;;1.70;99.90;;;;;;5027133;28;20045;-86
2021/01/08 01:36:39;;;;;;;15.13;6.93;;;1.60;99.90;;;;;;5023130;28;20072;-86
2021/01/08 01:39:04;;;;;;;18.75;7.35;;;1.60;99.90;;;;;;5010720;28;20054;-87
2021/01/08 01:41:30;;;;;;;13.65;6.15;;;1.50;99.90;;;;;;5017249;28;20141;-85
2021/01/08 01:43:56;;;;;;;12.77;6.75;;;1.50;99.90;;;;;;5024575;28;20084;-86
2021/01/08 01:46:22;;;;;;;13.70;6.20;;;1.40;99.90;;;;;;5010971;28;20046;-87
2021/01/08 01:48:49;;;;;;;13.68;6.63;;;1.30;99.90;;;;;;5020957;28;20104;-85
2021/01/08 01:51:16;;;;;;;14.43;6.85;;;1.30;99.90;;;;;;5002624;28;20082;-85
2021/01/08 01:53:41;;;;;;;13.20;5.72;;;1.30;99.90;;;;;;5002082;28;20069;-85
2021/01/08 01:56:07;;;;;;;13.52;6.25;;;1.20;99.90;;;;;;5004256;28;20075;-86
2021/01/08 01:58:32;;;;;;;17.05;6.50;;;1.20;99.90;;;;;;5003410;28;20116;-84
2021/01/08 02:00:58;;;;;;;11.98;6.40;;;1.10;99.90;;;;;;5004993;28;20046;-86
2021/01/08 02:03:32;;;;;;;13.15;6.05;;;1.00;99.90;;;;;;5008776;28;20045;-84
2021/01/08 02:06:02;;;;;;;15.90;6.13;;;1.00;99.90;;;;;;5013420;28;20038;-86
2021/01/08 02:08:28;;;;;;;13.45;6.57;;;0.90;99.90;;;;;;5011399;28;20040;-85
2021/01/08 02:11:01;;;;;;;16.25;6.32;;;0.90;99.90;;;;;;5007879;28;20034;-85
2021/01/08 02:13:46;;;;;;;14.50;6.22;;;1.00;99.90;;;;;;5024903;28;20033;-85
2021/01/08 02:16:13;;;;;;;13.57;6.35;;;1.00;99.90;;;;;;5015281;28;20041;-86
2021/01/08 02:18:40;;;;;;;13.48;6.10;;;1.00;99.90;;;;;;5013858;28;20071;-84
2021/01/08 02:21:10;;;;;;;13.95;6.35;;;1.10;99.90;;;;;;5011368;28;20041;-85
2021/01/08 02:23:40;;;;;;;11.35;6.05;;;1.10;99.90;;;;;;5012884;28;20030;-85
2021/01/08 02:26:07;;;;;;;16.20;5.95;;;1.10;99.90;;;;;;5013868;28;20053;-84
2021/01/08 02:28:33;;;;;;;12.45;6.63;;;1.10;99.90;;;;;;5014616;28;20033;-84
2021/01/08 02:30:59;;;;;;;16.33;6.57;;;1.20;99.90;;;;;;5007326;28;20041;-84
2021/01/08 02:33:25;;;;;;;15.45;5.63;;;1.20;99.90;;;;;;5012773;28;20237;-85
2021/01/08 02:35:51;;;;;;;12.85;6.03;;;1.20;99.90;;;;;;5014864;28;20073;-86
2021/01/08 02:38:20;;;;;;;11.23;5.15;;;1.30;99.90;;;;;;5011482;28;20044;-87
2021/01/08 02:40:47;;;;;;;12.95;5.35;;;1.30;99.90;;;;;;5012351;28;20026;-83
2021/01/08 02:43:18;;;;;;;10.27;5.72;;;1.30;99.90;;;;;;5013132;28;20100;-83
2021/01/08 02:45:43;;;;;;;13.57;5.93;;;1.30;99.90;;;;;;5014487;28;20057;-84
2021/01/08 02:48:10;;;;;;;14.68;6.07;;;1.30;99.90;;;;;;5014154;28;20048;-83
2021/01/08 02:50:36;;;;;;;17.25;6.38;;;1.40;99.90;;;;;;5012384;28;20044;-85
2021/01/08 02:53:06;;;;;;;12.40;5.32;;;1.40;99.90;;;;;;5012745;28;20448;-85
2021/01/08 02:55:33;;;;;;;12.02;5.13;;;1.40;99.90;;;;;;5013294;28;20026;-86
2021/01/08 02:58:00;;;;;;;12.32;5.72;;;1.40;99.90;;;;;;5010071;28;20042;-86
2021/01/08 03:00:31;;;;;;;14.80;5.07;;;1.40;99.90;;;;;;5003704;28;20223;-85
2021/01/08 03:02:59;;;;;;;9.65;5.25;;;1.40;99.90;;;;;;5019265;28;20041;-86
2021/01/08 03:05:27;;;;;;;12.32;5.35;;;1.40;99.90;;;;;;5008026;28;20080;-86
2021/01/08 03:07:53;;;;;;;12.35;6.43;;;1.30;99.90;;;;;;5006774;28;20579;-86
2021/01/08 03:10:19;;;;;;;11.70;5.18;;;1.30;99.90;;;;;;5009708;28;20038;-86
2021/01/08 03:12:53;;;;;;;9.25;5.25;;;1.30;99.90;;;;;;5012456;28;20032;-85
2021/01/08 03:15:19;;;;;;;;;;;1.30;99.90;;;;;;5007827;28;20080;-83
2021/01/08 03:17:44;;;;;;;8.73;4.13;;;1.20;99.90;;;;;;5007778;28;19921;-83
2021/01/08 03:20:10;;;;;;;15.55;5.38;;;1.20;99.90;;;;;;5007722;28;20048;-83
2021/01/08 03:22:36;;;;;;;14.27;5.68;;;1.20;99.90;;;;;;5009527;28;20041;-84
2021/01/08 03:25:02;;;;;;;9.95;5.22;;;1.20;99.90;;;;;;5009655;28;20087;-84
2021/01/08 03:27:27;;;;;;;11.93;5.00;;;1.20;99.90;;;;;;5006791;28;20100;-85
2021/01/08 03:29:53;;;;;;;15.05;6.25;;;1.20;99.90;;;;;;5006830;28;20080;-85
2021/01/08 03:32:18;;;;;;;14.23;5.28;;;1.20;99.90;;;;;;5006115;28;20038;-84
2021/01/08 03:34:44;;;;;;;11.93;6.15;;;1.20;99.90;;;;;;5012972;28;20030;-86
2021/01/08 03:37:09;;;;;;;13.45;6.35;;;1.20;99.90;;;;;;5016050;28;20033;-86
2021/01/08 03:39:35;;;;;;;10.43;5.07;;;1.20;99.90;;;;;;5017485;28;20132;-85
2021/01/08 03:42:00;;;;;;;14.75;5.75;;;1.20;99.90;;;;;;5010588;28;20033;-85
2021/01/08 03:44:26;;;;;;;12.82;5.75;;;1.20;99.90;;;;;;5006340;28;20034;-85
2021/01/08 03:46:52;;;;;;;16.73;5.57;;;1.20;99.90;;;;;;5004306;28;20034;-84
2021/01/08 03:49:17;;;;;;;13.85;6.28;;;1.10;99.90;;;;;;5011278;28;20124;-84
2021/01/08 03:51:44;;;;;;;12.57;5.43;;;1.10;99.90;;;;;;5024277;28;20413;-85
2021/01/08 03:54:10;;;;;;;12.18;4.95;;;1.20;99.90;;;;;;5011211;28;20042;-85
2021/01/08 03:56:35;;;;;;;12.38;6.30;;;1.20;99.90;;;;;;5010197;28;20057;-86
2021/01/08 03:59:01;;;;;;;12.98;5.80;;;1.20;99.90;;;;;;5006214;28;20253;-85
2021/01/08 04:01:26;;;;;;;13.65;6.13;;;1.20;99.90;;;;;;5005157;28;20057;-86
2021/01/08 04:03:52;;;;;;;12.00;5.80;;;1.20;99.90;;;;;;5005866;28;20638;-86
2021/01/08 04:06:17;;;;;;;9.93;5.50;;;1.20;99.90;;;;;;5004981;28;20097;-85
2021/01/08 04:08:43;;;;;;;14.50;7.03;;;1.20;99.90;;;;;;5008084;28;20139;-85
2021/01/08 04:11:08;;;;;;;13.02;5.88;;;1.30;99.90;;;;;;5002796;28;20049;-84
2021/01/08 04:13:34;;;;;;;14.93;5.93;;;1.30;99.90;;;;;;5005722;28;20127;-85
2021/01/08 04:15:59;;;;;;;15.88;6.50;;;1.30;99.90;;;;;;4999833;28;20108;-85
2021/01/08 04:18:25;;;;;;;10.82;5.95;;;1.40;99.90;;;;;;5010943;28;20041;-83
2021/01/08 04:20:50;;;;;;;13.88;5.57;;;1.30;99.90;;;;;;5003817;28;20037;-84
2021/01/08 04:23:16;;;;;;;13.45;5.95;;;1.30;99.90;;;;;;4997714;28;20034;-85
2021/01/08 04:25:41;;;;;;;14.30;5.55;;;1.40;99.90;;;;;;5010993;28;20630;-85
2021/01/08 04:28:07;;;;;;;11.68;5.63;;;1.30;99.90;;;;;;4994016;28;20049;-86
2021/01/08 04:30:32;;;;;;;10.48;5.10;;;1.40;99.90;;;;;;4997953;28;20041;-86
2021/01/08 04:32:58;;;;;;;12.80;5.88;;;1.40;99.90;;;;;;5001210;28;20050;-86
2021/01/08 04:35:23;;;;;;;14.60;5.85;;;1.40;99.90;;;;;;4997305;28;20103;-87
2021/01/08 04:37:49;;;;;;;17.05;6.82;;;1.40;99.90;;;;;;4997635;28;20037;-86
2021/01/08 04:40:15;;;;;;;12.73;6.25;;;1.40;99.90;;;;;;4994026;28;20116;-87
2021/01/08 04:42:40;;;;;;;13.93;6.35;;;1.40;99.90;;;;;;5001345;28;20068;-86
2021/01/08 04:45:06;;;;;;;12.77;6.32;;;1.40;99.90;;;;;;4999881;28;20041;-86
2021/01/08 04:47:33;;;;;;;14.48;6.38;;;1.40;99.90;;;;;;5001793;28;20141;-85
2021/01/08 04:50:01;;;;;;;12.93;6.07;;;1.40;99.90;;;;;;4993037;28;20093;-85
2021/01/08 04:52:27;;;;;;;13.93;6.50;;;1.40;99.90;;;;;;4994854;28;20041;-85
2021/01/08 04:54:53;;;;;;;12.50;6.00;;;1.40;99.90;;;;;;5008041;28;20037;-86
2021/01/08 04:57:22;;;;;;;14.55;6.63;;;1.40;99.90;;;;;;5022368;28;20088;-84
2021/01/08 04:59:48;;;;;;;15.45;6.70;;;1.40;99.90;;;;;;5013923;28;20041;-84
2021/01/08 05:02:14;;;;;;;13.30;5.40;;;1.40;99.90;;;;;;5018171;28;20034;-84
2021/01/08 05:04:39;;;;;;;14.10;6.28;;;1.40;99.90;;;;;;5024037;28;20060;-84
2021/01/08 05:07:05;;;;;;;15.00;6.90;;;1.40;99.90;;;;;;5022252;28;20768;-86
2021/01/08 05:09:31;;;;;;;12.57;6.22;;;1.40;99.90;;;;;;5017210;28;20105;-85
2021/01/08 05:11:57;;;;;;;15.40;6.75;;;1.40;99.90;;;;;;5013103;28;20108;-85
2021/01/08 05:14:25;;;;;;;15.32;6.15;;;1.30;99.90;;;;;;5015731;28;20092;-86
2021/01/08 05:16:50;;;;;;;12.45;6.43;;;1.30;99.90;;;;;;5016634;28;20112;-84
2021/01/08 05:19:18;;;;;;;14.48;6.93;;;1.30;99.90;;;;;;5011259;28;20060;-86
2021/01/08 05:21:43;;;;;;;11.73;5.93;;;1.20;99.90;;;;;;5011691;28;20064;-86
2021/01/08 05:24:10;;;;;;;13.90;6.97;;;1.30;99.90;;;;;;5014107;28;20269;-86
2021/01/08 05:26:36;;;;;;;11.57;5.65;;;1.30;99.90;;;;;;5010838;28;20141;-85
2021/01/08 05:29:03;;;;;;;14.13;6.95;;;1.30;99.90;;;;;;5003456;28;20034;-86
2021/01/08 05:31:30;;;;;;;10.65;5.53;;;1.30;99.90;;;;;;5006341;28;20071;-85
2021/01/08 05:33:56;;;;;;;12.02;6.03;;;1.30;99.90;;;;;;5008084;28;20072;-84
2021/01/08 05:36:23;;;;;;;14.85;6.63;;;1.30;99.90;;;;;;5000929;28;20143;-86
2021/01/08 05:38:54;;;;;;;12.15;6.32;;;1.30;99.90;;;;;;5005672;28;20045;-84
2021/01/08 05:41:23;;;;;;;14.23;6.38;;;1.30;99.90;;;;;;4993252;28;20041;-85
2021/01/08 05:43:48;;;;;;;15.18;6.20;;;1.30;99.90;;;;;;4995771;28;20041;-86
2021/01/08 05:46:23;;;;;;;14.45;5.35;;;1.30;99.90;;;;;;4996007;28;21194;-86
2021/01/08 05:48:52;;;;;;;12.57;5.75;;;1.30;99.90;;;;;;5004166;28;20037;-86
2021/01/08 05:51:20;;;;;;;14.23;5.03;;;1.30;99.90;;;;;;5002092;28;20048;-87
2021/01/08 05:53:48;;;;;;;11.90;5.50;;;1.30;99.90;;;;;;5008538;28;20049;-83
2021/01/08 05:56:15;;;;;;;11.02;5.68;;;1.30;99.90;;;;;;5004916;28;20046;-84
2021/01/08 05:58:42;;;;;;;12.45;5.70;;;1.40;99.90;;;;;;5008479;28;20046;-84
2021/01/08 06:01:07;;;;;;;13.93;5.22;;;1.30;99.90;;;;;;5008904;28;20049;-85
2021/01/08 06:03:33;;;;;;;11.65;5.25;;;1.30;99.90;;;;;;5008185;28;20050;-85
2021/01/08 06:06:01;;;;;;;9.68;4.80;;;1.30;99.90;;;;;;5010443;28;20151;-85
2021/01/08 06:08:30;;;;;;;12.82;5.47;;;1.30;99.90;;;;;;5019053;28;20049;-84
2021/01/08 06:10:57;;;;;;;12.48;5.40;;;1.30;99.90;;;;;;5012667;28;20064;-82
2021/01/08 06:13:34;;;;;;;11.15;5.50;;;1.30;99.90;;;;;;5009674;28;20037;-83
2021/01/08 06:16:04;;;;;;;11.30;5.47;;;1.30;99.90;;;;;;5017698;28;20045;-85
2021/01/08 06:18:37;;;;;;;13.48;4.95;;;1.30;99.90;;;;;;5019608;28;20064;-84
2021/01/08 06:21:08;;;;;;;10.65;5.28;;;1.30;99.90;;;;;;5021709;28;20067;-85
2021/01/08 06:23:36;;;;;;;10.77;4.97;;;1.30;99.90;;;;;;5007795;28;20038;-82
2021/01/08 06:26:04;;;;;;;15.68;5.38;;;1.30;99.90;;;;;;5008518;28;20045;-84
2021/01/08 06:28:34;;;;;;;10.75;5.40;;;1.30;99.90;;;;;;5015674;28;20048;-85
2021/01/08 06:31:05;;;;;;;10.60;4.63;;;1.40;99.90;;;;;;5026125;28;20670;-86
2021/01/08 06:33:35;;;;;;;9.43;4.90;;;1.40;99.90;;;;;;5017714;28;20044;-84
2021/01/08 06:36:18;;;;;;;10.13;4.60;;;1.40;99.90;;;;;;5013530;28;20038;-83
2021/01/08 06:38:49;;;;;;;10.82;4.88;;;1.40;99.90;;;;;;5012154;28;20041;-84
2021/01/08 06:41:16;;;;;;;11.32;5.47;;;1.40;99.90;;;;;;5008799;28;20131;-81
2021/01/08 06:43:55;;;;;;;11.55;4.70;;;1.40;99.90;;;;;;5009143;28;20042;-82
2021/01/08 06:46:29;;;;;;;11.55;5.05;;;1.40;99.90;;;;;;5003986;28;20038;-82
2021/01/08 06:49:00;;;;;;;10.52;4.80;;;1.40;99.90;;;;;;5004069;28;20037;-82
2021/01/08 06:51:29;;;;;;;10.65;5.20;;;1.40;99.90;;;;;;4998703;28;20037;-83
2021/01/08 06:53:56;;;;;;;10.15;5.22;;;1.40;99.90;;;;;;5007721;28;20122;-80
2021/01/08 06:56:30;;;;;;;10.95;5.55;;;1.50;99.90;;;;;;5013499;28;20591;-80
2021/01/08 06:58:56;;;;;;;11.90;5.50;;;1.50;99.90;;;;;;4991274;28;20171;-81
2021/01/08 07:01:52;;;;;;;11.02;5.10;;;1.50;99.90;;;;;;5011153;28;20113;-81
2021/01/08 07:04:19;;;;;;;10.98;4.65;;;1.50;99.90;;;;;;4992812;28;20065;-82
2021/01/08 07:06:45;;;;;;;9.75;5.05;;;1.50;99.90;;;;;;4993228;28;20136;-83
2021/01/08 07:09:11;;;;;;;11.38;4.88;;;1.60;99.90;;;;;;4990249;28;20037;-83
2021/01/08 07:11:37;;;;;;;9.48;4.82;;;1.60;99.90;;;;;;4993176;28;20065;-81
2021/01/08 07:14:10;;;;;;;16.63;4.40;;;1.60;99.90;;;;;;4992441;28;20045;-83
2021/01/08 07:16:42;;;;;;;9.80;5.18;;;1.60;99.90;;;;;;5001999;28;20553;-81
2021/01/08 07:19:13;;;;;;;11.23;5.18;;;1.70;99.90;;;;;;4992967;28;20061;-83
2021/01/08 07:21:52;;;;;;;10.13;4.82;;;1.70;99.90;;;;;;4992455;28;20041;-80
2021/01/08 07:24:23;;;;;;;14.20;5.40;;;1.70;99.90;;;;;;4991394;28;20802;-84
2021/01/08 07:26:48;;;;;;;14.88;5.53;;;1.70;99.90;;;;;;4992338;28;20808;-82
2021/01/08 07:29:15;;;;;;;13.30;5.63;;;1.70;99.90;;;;;;4992987;28;20052;-82
2021/01/08 07:31:41;;;;;;;14.07;5.18;;;1.70;99.90;;;;;;4992147;28;20047;-83
2021/01/08 07:34:09;;;;;;;10.45;5.28;;;1.70;99.90;;;;;;5001316;28;20037;-81
2021/01/08 07:36:35;;;;;;;11.73;5.22;;;1.70;99.90;;;;;;4995550;28;21046;-83
2021/01/08 07:39:03;;;;;;;11.48;5.57;;;1.70;99.90;;;;;;4996080;28;20506;-82
2021/01/08 07:41:47;;;;;;;12.25;6.22;;;1.70;99.90;;;;;;4990283;28;20041;-82
2021/01/08 07:44:33;;;;;;;11.80;4.95;;;1.70;99.90;;;;;;4989889;28;20475;-81
2021/01/08 07:47:21;;;;;;;14.95;5.70;;;1.70;99.90;;;;;;4993522;28;20057;-82
2021/01/08 07:50:10;;;;;;;8.13;4.88;;;1.80;99.90;;;;;;4998098;28;20212;-83
2021/01/08 07:52:44;;;;;;;14.57;5.93;;;1.80;99.90;;;;;;4994182;28;20030;-83
2021/01/08 07:55:33;;;;;;;12.63;5.47;;;1.80;99.90;;;;;;4988941;28;20044;-85
2021/01/08 07:58:05;;;;;;;11.32;5.57;;;1.80;99.90;;;;;;4973576;28;20041;-83
2021/01/08 08:00:32;;;;;;;12.38;5.57;;;1.80;99.90;;;;;;4968464;28;20072;-83
2021/01/08 08:03:01;;;;;;;10.43;4.93;;;1.90;99.90;;;;;;4983898;28;20045;-81
2021/01/08 08:05:28;;;;;;;10.77;5.50;;;1.80;99.90;;;;;;4980830;28;20096;-82
2021/01/08 08:08:01;;;;;;;12.30;4.75;;;1.80;99.90;;;;;;4994848;28;20491;-84
2021/01/08 08:10:29;;;;;;;11.00;4.68;;;1.70;99.90;;;;;;4975940;28;20524;-83
2021/01/08 08:12:55;;;;;;;9.75;5.18;;;1.70;99.90;;;;;;4984523;28;20728;-83
2021/01/08 08:15:22;;;;;;;10.88;4.30;;;1.70;99.90;;;;;;4968399;28;20120;-82
2021/01/08 08:17:48;;;;;;;10.93;4.60;;;1.70;99.90;;;;;;4957719;28;20485;-82
2021/01/08 08:20:32;;;;;;;10.10;4.97;;;1.70;99.90;;;;;;4945412;28;20165;-85
2021/01/08 08:22:57;;;;;;;8.88;4.60;;;1.70;99.90;;;;;;4982250;28;20049;-83
2021/01/08 08:25:27;;;;;;;7.82;4.18;;;1.70;99.90;;;;;;4979954;28;20045;-84
2021/01/08 08:27:53;;;;;;;9.50;4.25;;;1.70;99.90;;;;;;4957396;28;20053;-85
2021/01/08 08:30:20;;;;;;;9.75;4.80;;;1.70;99.90;;;;;;4958198;28;20054;-85
2021/01/08 08:32:46;;;;;;;8.32;4.28;;;1.80;99.90;;;;;;4998280;28;20049;-83
2021/01/08 08:35:12;;;;;;;10.93;4.18;;;1.80;99.90;;;;;;5005793;28;20147;-84
2021/01/08 08:37:54;;;;;;;16.23;4.65;;;1.90;99.90;;;;;;4980657;28;20044;-84
2021/01/08 08:40:24;;;;;;;10.07;4.80;;;1.90;99.90;;;;;;4986063;28;20084;-86
2021/01/08 08:42:51;;;;;;;8.07;3.92;;;1.90;99.90;;;;;;4972490;28;20153;-86
2021/01/08 08:45:21;;;;;;;7.13;3.55;;;1.90;99.90;;;;;;4979366;28;20057;-84
2021/01/08 08:47:49;;;;;;;7.93;4.05;;;1.90;99.90;;;;;;4951750;28;20168;-84
2021/01/08 08:50:16;;;;;;;7.15;3.95;;;1.80;99.90;;;;;;5023205;28;20045;-83
2021/01/08 08:52:42;;;;;;;9.73;3.65;;;1.80;99.90;;;;;;5017171;28;20053;-82
2021/01/08 08:55:08;;;;;;;6.05;3.20;;;1.80;99.90;;;;;;5013181;28;20110;-84
2021/01/08 08:57:34;;;;;;;7.38;3.90;;;1.70;99.90;;;;;;4965406;28;20048;-84
2021/01/08 09:00:00;;;;;;;8.02;3.78;;;1.80;99.90;;;;;;4970664;28;20065;-84
2021/01/08 09:02:27;;;;;;;12.27;4.30;;;1.80;99.90;;;;;;4985987;28;20035;-82
2021/01/08 09:05:00;;;;;;;9.10;4.15;;;1.90;99.90;;;;;;4991656;28;20045;-83
2021/01/08 09:07:45;;;;;;;6.63;3.50;;;1.90;99.90;;;;;;4996472;28;20034;-82
2021/01/08 09:10:16;;;;;;;7.07;3.55;;;2.00;99.90;;;;;;4955119;28;20095;-84
2021/01/08 09:13:18;;;;;;;9.50;4.18;;;1.90;99.90;;;;;;5001578;28;20269;-83
2021/01/08 09:15:59;;;;;;;9.32;3.28;;;1.90;99.90;;;;;;5009500;28;20101;-84
2021/01/08 09:18:39;;;;;;;7.30;3.40;;;1.90;99.90;;;;;;4986082;28;20056;-84
2021/01/08 09:21:24;;;;;;;7.15;3.45;;;1.90;99.90;;;;;;5000463;28;20160;-81
2021/01/08 09:23:52;;;;;;;;;;;2.00;99.90;;;;;;4963940;28;20038;-81
2021/01/08 09:26:19;;;;;;;11.85;4.03;;;2.00;99.90;;;;;;4982226;28;19920;-82
2021/01/08 09:28:49;;;;;;;7.95;3.53;;;2.00;99.90;;;;;;5002028;28;20462;-82
2021/01/08 09:31:15;;;;;;;4.93;3.08;;;2.00;99.90;;;;;;4978516;28;20074;-85
2021/01/08 09:33:40;;;;;;;5.90;3.47;;;2.00;99.90;;;;;;5005571;28;20021;-82
2021/01/08 09:36:07;;;;;;;6.63;3.72;;;2.00;99.90;;;;;;4957540;28;20048;-83
2021/01/08 09:38:33;;;;;;;8.10;3.63;;;2.00;99.90;;;;;;4969404;28;20033;-83
2021/01/08 09:40:59;;;;;;;8.57;4.20;;;2.00;99.90;;;;;;4972420;28;20042;-83
2021/01/08 09:43:25;;;;;;;9.40;3.38;;;2.10;99.90;;;;;;4979343;28;20164;-84
2021/01/08 09:46:17;;;;;;;8.30;3.80;;;2.20;99.90;;;;;;4980257;28;20116;-84
2021/01/08 09:48:43;;;;;;;6.93;3.15;;;2.20;99.90;;;;;;4988551;28;20053;-82
2021/01/08 09:51:10;;;;;;;6.95;3.35;;;2.30;99.90;;;;;;5017242;28;20037;-83
2021/01/08 09:53:36;;;;;;;6.78;3.38;;;2.30;99.90;;;;;;4990451;28;20054;-84
2021/01/08 09:56:15;;;;;;;8.65;3.78;;;2.40;99.90;;;;;;4986390;28;20493;-80
2021/01/08 09:58:41;;;;;;;4.45;2.80;;;2.40;99.90;;;;;;5010957;28;20561;-81
2021/01/08 10:01:08;;;;;;;6.30;3.13;;;2.50;99.90;;;;;;4983203;28;20050;-81
2021/01/08 10:03:34;;;;;;;7.65;2.75;;;2.50;99.90;;;;;;5009413;28;20038;-80
2021/01/08 10:06:09;;;;;;;4.85;2.63;;;2.40;99.90;;;;;;5008532;28;20052;-82
2021/01/08 10:08:35;;;;;;;4.53;2.55;;;2.40;99.90;;;;;;4974913;28;20055;-83
2021/01/08 10:11:01;;;;;;;4.50;3.00;;;2.50;99.90;;;;;;4960114;28;20041;-84
2021/01/08 10:13:27;;;;;;;5.63;2.83;;;2.60;99.90;;;;;;4978285;28;20058;-84
2021/01/08 10:15:56;;;;;;;4.38;2.40;;;2.60;99.90;;;;;;4979306;28;20096;-84
2021/01/08 10:18:27;;;;;;;6.15;3.47;;;2.60;99.90;;;;;;4993387;28;20045;-83
2021/01/08 10:21:02;;;;;;;3.72;2.15;;;2.70;99.90;;;;;;5003041;28;20034;-83
2021/01/08 10:23:28;;;;;;;4.63;2.22;;;2.70;99.90;;;;;;4956408;28;20080;-81
2021/01/08 10:26:08;;;;;;;4.25;2.33;;;2.50;99.90;;;;;;4979446;28;20033;-83
2021/01/08 10:28:46;;;;;;;7.07;3.10;;;2.50;99.90;;;;;;5004561;28;20045;-83
2021/01/08 10:31:11;;;;;;;6.32;2.83;;;2.60;99.90;;;;;;4977820;28;20241;-83
2021/01/08 10:33:37;;;;;;;5.32;2.58;;;2.50;99.90;;;;;;4973132;28;20511;-83
2021/01/08 10:36:03;;;;;;;5.20;2.75;;;2.50;99.90;;;;;;5003952;28;20037;-83
2021/01/08 10:38:28;;;;;;;5.95;3.10;;;2.50;99.90;;;;;;4985519;28;20037;-83
2021/01/08 10:40:54;;;;;;;4.80;2.50;;;2.50;99.90;;;;;;4996953;28;20201;-84
2021/01/08 10:43:19;;;;;;;5.28;2.92;;;2.50;99.90;;;;;;4976676;28;21709;-82
2021/01/08 10:45:46;;;;;;;6.20;2.70;;;2.50;99.90;;;;;;5006556;28;20035;-83
2021/01/08 10:48:11;;;;;;;10.70;3.78;;;2.50;99.90;;;;;;4992817;28;20065;-82
2021/01/08 10:50:37;;;;;;;11.00;3.45;;;2.50;99.90;;;;;;4992530;28;20519;-83
2021/01/08 10:53:03;;;;;;;7.90;3.80;;;2.60;99.90;;;;;;4993897;28;20030;-82
2021/01/08 10:55:28;;;;;;;7.30;2.92;;;2.70;99.90;;;;;;4994229;28;20038;-84
2021/01/08 10:57:55;;;;;;;6.35;3.17;;;2.70;99.90;;;;;;4990412;28;20048;-82
2021/01/08 11:00:21;;;;;;;6.32;3.38;;;2.80;99.90;;;;;;4991205;28;20049;-82
2021/01/08 11:02:47;;;;;;;5.85;2.97;;;2.90;99.90;;;;;;4991130;28;20085;-82
2021/01/08 11:05:13;;;;;;;5.15;3.13;;;2.90;99.90;;;;;;4992845;28;20336;-82
2021/01/08 11:07:38;;;;;;;5.97;3.28;;;2.80;99.90;;;;;;4988146;28;20038;-82
2021/01/08 11:10:06;;;;;;;7.60;3.08;;;2.80;99.90;;;;;;4995297;28;20049;-82
2021/01/08 11:12:32;;;;;;;6.97;3.00;;;2.90;99.90;;;;;;4990818;28;20045;-82
2021/01/08 11:14:58;;;;;;;7.57;3.97;;;2.80;99.90;;;;;;4991961;28;20042;-82
2021/01/08 11:17:24;;;;;;;7.43;3.97;;;2.90;99.90;;;;;;4990677;28;20045;-84
2021/01/08 11:19:49;;;;;;;6.35;3.78;;;3.00;99.90;;;;;;4989829;28;20136;-84
2021/01/08 11:22:15;;;;;;;6.35;3.22;;;2.90;99.90;;;;;;4992028;28;20029;-82
2021/01/08 11:24:41;;;;;;;7.15;4.00;;;2.80;99.00;;;;;;4997309;28;20037;-85
2021/01/08 11:27:07;;;;;;;7.10;3.92;;;2.80;99.20;;;;;;4999126;28;20037;-85
2021/01/08 11:29:35;;;;;;;6.68;3.47;;;2.90;99.40;;;;;;4998324;28;20844;-84
2021/01/08 11:32:06;;;;;;;5.85;3.47;;;2.90;98.30;;;;;;5003709;28;20044;-87
2021/01/08 11:34:31;;;;;;;8.13;3.13;;;2.80;95.70;;;;;;4997488;28;20113;-83
2021/01/08 11:36:57;;;;;;;7.05;3.38;;;2.70;94.70;;;;;;4995684;28;20055;-83
2021/01/08 11:39:23;;;;;;;10.23;4.38;;;2.70;95.10;;;;;;4992699;28;20060;-82
2021/01/08 11:41:53;;;;;;;5.40;2.80;;;2.80;95.60;;;;;;4992566;28;20179;-82
2021/01/08 11:44:18;;;;;;;5.97;3.35;;;2.90;95.10;;;;;;4998826;28;20067;-82
2021/01/08 11:46:44;;;;;;;6.35;2.83;;;3.00;94.80;;;;;;4995597;28;20041;-85
2021/01/08 11:49:09;;;;;;;9.02;3.90;;;3.00;94.00;;;;;;4992933;28;20042;-84
2021/01/08 11:51:35;;;;;;;4.45;2.63;;;3.00;94.60;;;;;;4993508;28;20608;-84
2021/01/08 11:54:00;;;;;;;8.15;3.38;;;3.00;92.90;;;;;;4996908;28;22094;-83
2021/01/08 11:56:29;;;;;;;7.00;3.38;;;3.10;93.90;;;;;;5000078;28;20048;-85
2021/01/08 11:58:56;;;;;;;10.10;3.08;;;3.20;93.30;;;;;;5004019;28;20061;-85
2021/01/08 12:01:25;;;;;;;8.85;3.28;;;3.00;92.80;;;;;;4994404;28;20068;-86
2021/01/08 12:03:52;;;;;;;6.95;3.55;;;3.10;94.10;;;;;;4993386;28;20182;-85
2021/01/08 12:06:23;;;;;;;4.97;2.63;;;3.00;92.90;;;;;;4996554;28;20065;-85
2021/01/08 12:08:49;;;;;;;12.45;4.63;;;2.90;93.00;;;;;;4998027;28;20074;-87
2021/01/08 12:11:15;;;;;;;14.40;3.38;;;2.90;93.40;;;;;;4990284;28;20034;-84
2021/01/08 12:13:42;;;;;;;6.38;3.70;;;3.00;93.70;;;;;;4994330;28;20046;-83
2021/01/08 12:16:07;;;;;;;6.57;3.00;;;2.90;92.30;;;;;;4988176;28;20078;-84
2021/01/08 12:18:33;;;;;;;10.57;3.78;;;2.80;92.60;;;;;;4993200;28;20283;-85
2021/01/08 12:20:58;;;;;;;10.10;3.97;;;2.70;93.10;;;;;;4991100;28;20049;-86
2021/01/08 12:23:24;;;;;;;11.75;4.47;;;2.60;92.90;;;;;;4998677;28;20046;-86
2021/01/08 12:25:49;;;;;;;10.85;4.45;;;2.60;93.20;;;;;;4998771;28;20038;-88
2021/01/08 12:28:15;;;;;;;9.52;4.53;;;2.50;93.50;;;;;;5006084;28;20029;-85
2021/01/08 12:30:44;;;;;;;9.27;4.15;;;2.50;93.90;;;;;;5014607;28;20030;-84
2021/01/08 12:33:09;;;;;;;7.45;3.95;;;2.50;94.60;;;;;;5016212;28;20044;-84
2021/01/08 12:35:35;;;;;;;9.48;3.85;;;2.50;96.40;;;;;;5029468;28;20037;-87
2021/01/08 12:38:01;;;;;;;9.35;3.45;;;2.50;95.00;;;;;;5017021;28;20033;-82
2021/01/08 12:40:26;;;;;;;9.52;4.10;;;2.50;95.00;;;;;;5015663;28;20061;-83
2021/01/08 12:42:53;;;;;;;11.15;4.32;;;2.50;95.40;;;;;;5008825;28;20097;-83
2021/01/08 12:45:20;;;;;;;11.80;4.63;;;2.50;95.70;;;;;;5006439;28;20045;-84
2021/01/08 12:47:46;;;;;;;11.70;4.60;;;2.50;96.10;;;;;;5005822;28;20069;-84
2021/01/08 12:50:12;;;;;;;11.23;3.88;;;2.50;95.40;;;;;;5006677;28;20052;-84
2021/01/08 12:52:38;;;;;;;13.10;4.78;;;2.50;95.30;;;;;;5011002;28;20041;-85
2021/01/08 12:55:05;;;;;;;11.45;4.32;;;2.50;96.30;;;;;;5002456;28;20049;-83